createdAt,value
2019-03-11T00:03:18.137Z,92.00
2019-03-11T00:08:23.817Z,88.71
2019-03-11T00:13:27.954Z,86.96
2019-03-11T00:18:33.029Z,88.29
2019-03-11T00:23:37.111Z,88.02
2019-03-11T00:28:41.175Z,86.98
2019-03-11T00:33:45.329Z,86.81
2019-03-11T00:38:49.347Z,86.51
2019-03-11T00:43:53.422Z,85.81
2019-03-11T00:48:57.507Z,91.73
2019-03-11T00:54:01.617Z,92.72
2019-03-11T00:59:05.782Z,90.87
2019-03-11T01:04:09.918Z,90.60
2019-03-11T01:09:14.024Z,90.57
2019-03-11T01:14:18.091Z,91.24
2019-03-11T01:19:22.218Z,90.34
2019-03-11T01:24:26.241Z,88.86
2019-03-11T01:29:30.383Z,87.86
2019-03-11T01:34:34.383Z,90.22
2019-03-11T01:39:38.473Z,90.79
2019-03-11T01:44:42.507Z,91.00
2019-03-11T01:49:46.570Z,91.39
2019-03-11T01:54:50.637Z,91.82
2019-03-11T01:59:54.922Z,92.11
2019-03-11T02:04:58.952Z,94.79
2019-03-11T02:10:03.298Z,95.28
2019-03-11T02:15:08.562Z,94.39
2019-03-11T02:20:13.722Z,93.80
2019-03-11T02:25:17.937Z,92.79
2019-03-11T02:30:22.054Z,92.00
2019-03-11T02:35:28.244Z,90.55
2019-03-11T02:40:32.422Z,83.04
2019-03-11T02:45:36.448Z,81.65
2019-03-11T02:50:40.505Z,81.01
2019-03-11T02:55:44.593Z,82.38
2019-03-11T03:00:48.670Z,81.91
2019-03-11T03:05:52.788Z,83.27
2019-03-11T03:10:56.882Z,81.85
2019-03-11T03:16:01.002Z,75.58
2019-03-11T03:21:05.269Z,75.58
2019-03-11T03:26:09.322Z,73.75
2019-03-11T03:31:13.389Z,74.03
2019-03-11T03:36:17.498Z,76.19
2019-03-11T03:41:21.586Z,76.24
2019-03-11T03:46:25.761Z,73.02
2019-03-11T03:51:29.814Z,74.20
2019-03-11T03:56:33.868Z,75.46
2019-03-11T04:01:37.974Z,77.94
2019-03-11T04:06:42.071Z,73.49
2019-03-11T04:11:46.074Z,75.67
2019-03-11T04:16:50.084Z,76.31
2019-03-11T04:21:54.242Z,77.60
2019-03-11T04:26:58.314Z,79.83
2019-03-11T04:32:02.465Z,79.54
2019-03-11T04:37:06.682Z,77.39
2019-03-11T04:42:10.796Z,77.56
2019-03-11T04:47:14.877Z,77.30
2019-03-11T04:52:18.998Z,77.02
2019-03-11T04:57:23.598Z,78.25
2019-03-11T05:02:27.747Z,79.17
2019-03-11T05:07:31.883Z,79.20
2019-03-11T05:12:35.899Z,75.75
2019-03-11T05:17:40.046Z,78.25
2019-03-11T05:22:44.199Z,74.95
2019-03-11T05:27:48.420Z,76.42
2019-03-11T05:32:52.452Z,74.65
2019-03-11T05:37:56.544Z,74.75
2019-03-11T05:43:00.642Z,75.33
2019-03-11T05:48:04.791Z,74.01
2019-03-11T05:53:08.853Z,72.94
2019-03-11T05:58:12.908Z,74.00
2019-03-11T06:03:17.060Z,74.48
2019-03-11T06:08:22.986Z,73.67
2019-03-11T06:13:35.642Z,70.78
2019-03-11T06:18:33.142Z,71.49
2019-03-11T06:23:38.159Z,72.98
2019-03-11T06:28:42.302Z,74.39
2019-03-11T06:33:46.386Z,74.71
2019-03-11T06:38:50.432Z,74.26
2019-03-11T06:43:54.512Z,75.51
2019-03-11T06:48:58.632Z,74.44
2019-03-11T06:54:02.732Z,73.31
2019-03-11T06:59:06.792Z,74.79
2019-03-11T07:04:10.892Z,75.20
2019-03-11T07:14:26.264Z,77.23
2019-03-11T07:19:30.398Z,74.12
2019-03-11T07:24:34.625Z,74.52
2019-03-11T07:29:38.873Z,74.94
2019-03-11T07:34:42.985Z,71.46
2019-03-11T07:39:47.094Z,70.89
2019-03-11T07:44:51.194Z,69.79
2019-03-11T07:49:55.315Z,70.68
2019-03-11T07:54:59.408Z,71.05
2019-03-11T08:00:04.126Z,71.46
2019-03-11T08:05:10.746Z,69.42
2019-03-11T08:10:14.838Z,67.66
2019-03-11T08:15:18.989Z,69.60
2019-03-11T08:20:23.224Z,71.46
2019-03-11T08:25:28.191Z,69.35
2019-03-11T08:30:33.478Z,70.15
2019-03-11T08:35:37.561Z,71.77
2019-03-11T08:40:42.981Z,71.03
2019-03-11T08:45:47.305Z,69.54
2019-03-11T08:50:51.394Z,71.33
2019-03-11T08:55:55.476Z,70.90
2019-03-11T09:00:59.534Z,77.58
2019-03-11T09:06:03.575Z,76.74
2019-03-11T09:11:07.735Z,76.85
2019-03-11T09:16:11.898Z,74.23
2019-03-11T09:21:15.950Z,70.15
2019-03-11T09:26:20.182Z,68.25
2019-03-11T09:31:24.269Z,69.99
2019-03-11T09:36:28.382Z,67.18
2019-03-11T09:41:32.399Z,65.80
2019-03-11T09:46:36.481Z,65.99
2019-03-11T09:51:40.549Z,66.86
2019-03-11T09:56:44.731Z,65.61
2019-03-11T10:01:48.734Z,65.01
2019-03-11T10:06:52.854Z,64.58
2019-03-11T10:11:56.898Z,68.84
2019-03-11T10:17:01.001Z,69.54
2019-03-11T10:22:04.994Z,66.21
2019-03-11T10:27:09.335Z,65.01
2019-03-11T10:32:13.437Z,64.40
2019-03-11T10:37:17.810Z,66.81
2019-03-11T10:42:21.921Z,66.13
2019-03-11T10:47:26.116Z,69.09
2019-03-11T10:52:30.410Z,70.54
2019-03-11T10:57:34.615Z,73.89
2019-03-11T11:02:38.640Z,71.99
2019-03-11T11:07:42.697Z,71.01
2019-03-11T11:12:48.305Z,65.30
2019-03-11T11:17:52.794Z,64.51
2019-03-11T11:22:56.911Z,68.41
2019-03-11T11:28:01.884Z,70.32
2019-03-11T11:33:06.031Z,63.79
2019-03-11T11:38:10.180Z,63.12
2019-03-11T11:43:14.280Z,64.50
2019-03-11T11:48:18.424Z,63.00
2019-03-11T11:53:25.134Z,59.79
2019-03-11T11:58:28.617Z,62.79
2019-03-11T12:03:32.958Z,62.12
2019-03-11T12:08:37.180Z,62.98
2019-03-11T12:13:41.238Z,62.11
2019-03-11T12:18:45.295Z,62.71
2019-03-11T12:23:49.478Z,63.06
2019-03-11T12:28:53.837Z,62.49
2019-03-11T12:33:58.117Z,64.11
2019-03-11T12:39:02.598Z,64.47
2019-03-11T12:44:06.777Z,64.85
2019-03-11T12:49:11.197Z,63.21
2019-03-11T12:54:15.474Z,63.49
2019-03-11T12:59:19.737Z,63.99
2019-03-11T13:04:23.920Z,64.51
2019-03-11T13:09:28.210Z,61.50
2019-03-11T13:14:34.489Z,68.46
2019-03-11T13:19:38.789Z,68.46
2019-03-11T13:24:43.021Z,69.70
2019-03-11T13:29:47.280Z,69.70
2019-03-11T13:34:51.326Z,68.83
2019-03-11T13:39:55.538Z,65.15
2019-03-11T13:44:59.605Z,69.28
2019-03-11T13:50:07.012Z,69.78
2019-03-11T13:55:11.441Z,69.78
2019-03-11T14:00:16.760Z,68.48
2019-03-11T14:05:20.827Z,68.48
2019-03-11T14:10:26.062Z,68.65
2019-03-11T14:15:30.364Z,71.06
2019-03-11T14:20:34.399Z,68.18
2019-03-11T14:25:38.470Z,69.74
2019-03-11T14:30:42.604Z,69.33
2019-03-11T14:35:46.689Z,68.37
2019-03-11T14:40:50.774Z,67.84
2019-03-11T14:45:54.855Z,67.83
2019-03-11T14:50:59.046Z,68.13
2019-03-11T14:56:03.210Z,67.59
2019-03-11T15:01:07.304Z,70.56
2019-03-11T15:06:11.758Z,69.22
2019-03-11T15:11:15.844Z,73.85
2019-03-11T15:16:19.921Z,74.56
2019-03-11T15:21:26.549Z,76.96
2019-03-11T15:26:30.880Z,74.92
2019-03-11T15:31:36.014Z,74.64
2019-03-11T15:36:40.617Z,76.90
2019-03-11T15:41:44.826Z,76.88
2019-03-11T15:46:49.007Z,76.18
2019-03-11T15:51:53.134Z,75.85
2019-03-11T15:56:57.227Z,75.79
2019-03-11T16:02:01.570Z,72.65
2019-03-11T16:07:05.745Z,75.57
2019-03-11T16:12:09.909Z,74.70
2019-03-11T16:17:14.023Z,76.97
2019-03-11T16:22:23.331Z,75.98
2019-03-11T16:27:24.025Z,76.80
2019-03-11T16:32:28.245Z,78.34
2019-03-11T16:37:32.425Z,78.35
2019-03-11T16:42:36.527Z,79.25
2019-03-11T16:47:43.721Z,79.97
2019-03-11T16:52:47.822Z,80.67
2019-03-11T16:57:53.639Z,81.64
2019-03-11T17:02:57.914Z,82.77
2019-03-11T17:08:02.025Z,82.47
2019-03-11T17:13:08.404Z,81.52
2019-03-11T17:18:12.552Z,81.10
2019-03-11T17:23:16.730Z,81.92
2019-03-11T17:28:20.880Z,82.08
2019-03-11T17:33:25.060Z,82.65
2019-03-11T17:38:29.168Z,82.67
2019-03-11T17:43:33.352Z,83.47
2019-03-11T17:48:37.485Z,84.05
2019-03-11T17:53:41.711Z,84.87
2019-03-11T17:58:45.760Z,83.58
2019-03-11T18:03:49.937Z,81.20
2019-03-11T18:08:54.061Z,81.90
2019-03-11T18:13:58.523Z,81.83
2019-03-11T18:19:02.801Z,81.93
2019-03-11T18:24:10.378Z,81.82
2019-03-11T18:29:14.660Z,80.62
2019-03-11T18:34:18.822Z,79.91
2019-03-11T18:39:22.853Z,81.40
2019-03-11T18:44:26.999Z,81.96
2019-03-11T18:49:30.964Z,80.10
2019-03-11T18:54:36.801Z,78.85
2019-03-11T18:59:40.565Z,78.75
2019-03-11T19:04:44.466Z,78.76
2019-03-11T19:09:48.615Z,80.25
2019-03-11T19:14:52.562Z,81.52
2019-03-11T19:19:56.594Z,82.97
2019-03-11T19:25:02.557Z,83.78
2019-03-11T19:30:09.657Z,83.16
2019-03-11T19:35:13.719Z,82.96
2019-03-11T19:40:18.277Z,82.05
2019-03-11T19:45:22.261Z,83.14
2019-03-11T19:50:26.538Z,84.77
2019-03-11T19:55:30.538Z,85.51
2019-03-11T20:00:34.599Z,85.04
2019-03-11T20:05:38.665Z,85.08
2019-03-11T20:10:42.953Z,84.79
2019-03-11T20:15:47.169Z,84.91
2019-03-11T20:20:51.125Z,84.06
2019-03-11T20:25:55.225Z,84.05
2019-03-11T20:31:01.019Z,83.31
2019-03-11T20:36:05.327Z,84.49
2019-03-11T20:41:09.302Z,84.75
2019-03-11T20:46:13.426Z,85.59
2019-03-11T20:51:17.408Z,84.95
2019-03-11T20:56:21.437Z,84.15
2019-03-11T21:01:25.496Z,83.67
2019-03-11T21:06:29.509Z,84.93
2019-03-11T21:11:33.375Z,86.13
2019-03-11T21:16:37.391Z,87.04
2019-03-11T21:21:41.408Z,86.00
2019-03-11T21:26:45.387Z,84.46
2019-03-11T21:31:49.564Z,85.52
2019-03-11T21:36:53.565Z,86.35
2019-03-11T21:41:57.572Z,85.52
2019-03-11T21:47:01.563Z,86.41
2019-03-11T21:52:05.538Z,85.91
2019-03-11T21:57:09.534Z,86.81
2019-03-11T22:02:13.576Z,88.29
2019-03-11T22:07:17.634Z,88.89
2019-03-11T22:12:21.645Z,89.23
2019-03-11T22:17:25.669Z,88.24
2019-03-11T22:22:29.648Z,87.85
2019-03-11T22:27:33.546Z,89.11
2019-03-11T22:32:39.228Z,88.50
2019-03-11T22:37:43.160Z,88.05
2019-03-11T22:42:47.150Z,90.87
2019-03-11T22:47:51.500Z,93.89
2019-03-11T22:52:55.490Z,96.32
2019-03-11T22:57:59.413Z,97.85
2019-03-11T23:03:06.570Z,99.10
2019-03-11T23:08:09.261Z,100.00
2019-03-11T23:13:13.307Z,100.00
2019-03-11T23:18:18.454Z,100.00
2019-03-11T23:23:22.546Z,100.00
2019-03-11T23:28:26.490Z,100.00
2019-03-11T23:33:31.354Z,100.00
2019-03-11T23:38:35.316Z,100.00
2019-03-11T23:43:39.296Z,100.00
2019-03-11T23:48:43.239Z,100.00
2019-03-11T23:53:47.181Z,100.00
2019-03-11T23:58:51.145Z,100.00
